Japan Airlines Virtual Airport Information Service

Guam Antonio B. Won Pat International Airport

ICAO: PGUM Country: Guam
Latitude: 13.4839 Longitude: 144.797
Latest Arrival : JAL8 (RJAA-PGUM) Latest Departure : JAL942 (PGUM-RJAA)


WX CaptureLIVE
Data provided by noaa.gov | Fetched at 17:17:44

METAR : PGUM 291654Z 18004KT 10SM CLR 25/23 A2972 RMK AO2 RAE24 SLP054 P0000 T02500233

TAF : PGUM 291120Z 2912/3018 20005KT P6SM VCSH SCT023 SCT050 TEMPO 2913/2917 2SM +SHRA SCT015 BKN025 OVC040 FM292300 22014KT P6SM VCSH SCT020 SCT040 BKN120


Runway Data for PGUM
Data provided by openaviationdata.com

Runway ID Mag Var Hdg Length Elevation Surface ILS Freq ILS Id ILS Slope
06L 2 62° 10022 ft 298 ft Asphalt 110.3 IGUM 3
06R 2 62° 8009 ft 298 ft Asphalt -- -- --
24L 2 242° 8009 ft 298 ft Asphalt -- -- --
24R 2 242° 10022 ft 298 ft Asphalt -- -- --

Guam Antonio B. Won Pat International Airport, Guam
Use only for reference purposes



Not for navigational purposes.